createdAt,value
2022-08-03T00:00:41.964Z,19.52
2022-08-03T00:02:54.997Z,19.47
2022-08-03T00:05:09.576Z,19.42
2022-08-03T00:07:22.845Z,19.32
2022-08-03T00:09:36.011Z,19.36
2022-08-03T00:11:49.142Z,19.42
2022-08-03T00:14:04.566Z,19.65
2022-08-03T00:16:17.910Z,19.71
2022-08-03T00:18:31.019Z,19.74
2022-08-03T00:20:44.147Z,19.92
2022-08-03T00:22:57.461Z,20.01
2022-08-03T00:25:11.882Z,20.00
2022-08-03T00:27:24.863Z,20.00
2022-08-03T00:29:59.958Z,19.97
2022-08-03T00:32:11.409Z,19.90
2022-08-03T00:34:34.575Z,19.83
2022-08-03T00:36:58.067Z,19.76
2022-08-03T00:39:11.201Z,19.71
2022-08-03T00:41:24.191Z,19.68
2022-08-03T00:43:37.095Z,19.66
2022-08-03T00:45:50.302Z,19.64
2022-08-03T00:48:05.148Z,19.62
2022-08-03T00:50:18.780Z,19.67
2022-08-03T00:52:31.849Z,19.75
2022-08-03T00:54:45.271Z,19.72
2022-08-03T00:57:00.159Z,19.63
2022-08-03T00:59:13.719Z,19.56
2022-08-03T01:01:30.633Z,19.48
2022-08-03T01:03:45.942Z,19.37
2022-08-03T01:06:04.086Z,19.33
2022-08-03T01:08:24.024Z,19.40
2022-08-03T01:10:45.301Z,19.47
2022-08-03T01:13:07.815Z,19.56
2022-08-03T01:15:47.662Z,19.57
2022-08-03T01:18:06.854Z,19.66
2022-08-03T01:20:21.856Z,19.68
2022-08-03T01:23:01.505Z,19.73
2022-08-03T01:25:28.218Z,19.84
2022-08-03T01:27:55.576Z,19.71
2022-08-03T01:30:11.365Z,19.54
2022-08-03T01:33:02.617Z,19.43
2022-08-03T01:35:08.355Z,19.43
2022-08-03T01:37:25.682Z,19.49
2022-08-03T01:39:41.040Z,19.53
2022-08-03T01:42:00.451Z,19.49
2022-08-03T01:44:29.735Z,19.44
2022-08-03T01:46:47.720Z,19.46
2022-08-03T01:49:09.146Z,19.53
2022-08-03T01:51:24.537Z,19.56
2022-08-03T01:53:58.340Z,19.64
2022-08-03T01:56:12.495Z,19.70
2022-08-03T01:58:27.998Z,19.61
2022-08-03T02:00:42.196Z,19.45
2022-08-03T02:02:58.378Z,19.43
2022-08-03T02:05:15.274Z,19.33
2022-08-03T02:07:30.147Z,19.23
2022-08-03T02:09:44.351Z,19.21
2022-08-03T02:11:59.365Z,19.17
2022-08-03T02:14:13.086Z,19.18
2022-08-03T02:16:27.332Z,19.23
2022-08-03T02:18:43.169Z,19.20
2022-08-03T02:20:57.884Z,19.19
2022-08-03T02:23:11.365Z,19.12
2022-08-03T02:25:24.764Z,19.03
2022-08-03T02:27:43.465Z,18.96
2022-08-03T02:30:09.528Z,18.91
2022-08-03T02:32:24.889Z,18.87
2022-08-03T02:34:40.129Z,18.82
2022-08-03T02:36:57.172Z,18.79
2022-08-03T02:39:13.417Z,18.75
2022-08-03T02:41:32.901Z,18.76
2022-08-03T02:44:05.889Z,18.81
2022-08-03T02:46:21.684Z,18.81
2022-08-03T02:48:40.561Z,18.80
2022-08-03T02:50:55.109Z,18.80
2022-08-03T02:53:10.653Z,18.77
2022-08-03T02:55:27.201Z,18.74
2022-08-03T02:57:41.460Z,18.73
2022-08-03T02:59:55.183Z,18.73
2022-08-03T03:02:09.146Z,18.71
2022-08-03T03:04:24.198Z,18.65
2022-08-03T03:06:43.794Z,18.57
2022-08-03T03:09:00.908Z,18.52
2022-08-03T03:11:15.229Z,18.47
2022-08-03T03:13:28.907Z,18.43
2022-08-03T03:15:42.498Z,18.39
2022-08-03T03:17:56.641Z,18.31
2022-08-03T03:20:11.360Z,18.26
2022-08-03T03:22:25.490Z,18.23
2022-08-03T03:24:39.507Z,18.20
2022-08-03T03:26:53.841Z,18.14
2022-08-03T03:29:07.829Z,18.06
2022-08-03T03:31:20.996Z,17.99
2022-08-03T03:33:34.421Z,17.92
2022-08-03T03:35:48.716Z,17.85
2022-08-03T03:38:02.194Z,17.79
2022-08-03T03:40:17.332Z,17.73
2022-08-03T03:42:31.407Z,17.70
2022-08-03T03:44:44.803Z,17.65
2022-08-03T03:46:57.999Z,17.60
2022-08-03T03:49:11.709Z,17.55
2022-08-03T03:51:24.848Z,17.51
2022-08-03T03:53:37.989Z,17.46
2022-08-03T03:55:59.297Z,17.45
2022-08-03T03:58:15.926Z,17.44
2022-08-03T04:00:30.024Z,17.42
2022-08-03T04:02:43.017Z,17.41
2022-08-03T04:05:12.413Z,17.38
2022-08-03T04:07:43.537Z,17.35
2022-08-03T04:10:15.040Z,17.30
2022-08-03T04:12:29.925Z,17.22
2022-08-03T04:14:44.526Z,17.16
2022-08-03T04:17:01.310Z,17.10
2022-08-03T04:19:22.636Z,17.03
2022-08-03T04:21:37.285Z,17.00
2022-08-03T04:23:54.628Z,16.98
2022-08-03T04:26:10.823Z,16.95
2022-08-03T04:28:29.556Z,16.91
2022-08-03T04:30:49.480Z,16.86
2022-08-03T04:33:04.601Z,16.82
2022-08-03T04:35:18.019Z,16.78
2022-08-03T04:37:38.957Z,16.74
2022-08-03T04:39:57.619Z,16.71
2022-08-03T04:42:15.590Z,16.68
2022-08-03T04:44:30.663Z,16.65
2022-08-03T04:46:50.472Z,16.63
2022-08-03T04:49:06.863Z,16.62
2022-08-03T04:51:20.613Z,16.61
2022-08-03T04:53:34.011Z,16.59
2022-08-03T04:55:47.363Z,16.56
2022-08-03T04:58:00.721Z,16.52
2022-08-03T05:00:15.559Z,16.47
2022-08-03T05:02:29.178Z,16.43
2022-08-03T05:04:47.601Z,16.40
2022-08-03T05:07:00.652Z,16.37
2022-08-03T05:09:50.735Z,16.35
2022-08-03T05:11:59.158Z,16.33
2022-08-03T05:14:12.180Z,16.31
2022-08-03T05:16:27.103Z,16.29
2022-08-03T05:18:40.126Z,16.25
2022-08-03T05:20:53.345Z,16.22
2022-08-03T05:23:06.547Z,16.21
2022-08-03T05:25:22.259Z,16.19
2022-08-03T05:27:37.489Z,16.15
2022-08-03T05:29:51.556Z,16.11
2022-08-03T05:32:08.206Z,16.09
2022-08-03T05:34:21.541Z,16.05
2022-08-03T05:36:34.735Z,16.02
2022-08-03T05:38:48.050Z,16.00
2022-08-03T05:41:21.855Z,15.98
2022-08-03T05:43:35.111Z,15.96
2022-08-03T05:45:49.887Z,15.96
2022-08-03T05:48:22.938Z,15.93
2022-08-03T05:50:42.476Z,15.90
2022-08-03T05:52:58.828Z,15.85
2022-08-03T05:55:13.565Z,15.83
2022-08-03T05:57:26.709Z,15.81
2022-08-03T05:59:57.734Z,15.78
2022-08-03T06:02:11.912Z,15.73
2022-08-03T06:04:25.228Z,15.70
2022-08-03T06:06:38.289Z,15.67
2022-08-03T06:08:51.784Z,15.62
2022-08-03T06:11:05.088Z,15.57
2022-08-03T06:13:18.199Z,15.52
2022-08-03T06:15:32.021Z,15.50
2022-08-03T06:17:53.172Z,15.49
2022-08-03T06:20:06.219Z,15.45
2022-08-03T06:22:19.486Z,15.40
2022-08-03T06:24:34.565Z,15.37
2022-08-03T06:26:47.629Z,15.33
2022-08-03T06:29:00.744Z,15.29
2022-08-03T06:31:17.069Z,15.24
2022-08-03T06:34:31.243Z,15.20
2022-08-03T06:36:03.277Z,15.17
2022-08-03T06:38:16.251Z,15.15
2022-08-03T06:40:32.545Z,15.13
2022-08-03T06:42:45.586Z,15.10
2022-08-03T06:44:59.447Z,15.06
2022-08-03T06:47:12.905Z,15.05
2022-08-03T06:49:26.155Z,15.04
2022-08-03T06:52:06.263Z,15.03
2022-08-03T06:54:13.540Z,15.01
2022-08-03T06:56:26.567Z,14.99
2022-08-03T06:58:39.639Z,14.96
2022-08-03T07:00:52.698Z,14.95
2022-08-03T07:03:05.769Z,14.93
2022-08-03T07:05:19.057Z,14.92
2022-08-03T07:07:32.105Z,14.91
2022-08-03T07:09:56.951Z,14.89
2022-08-03T07:12:12.413Z,14.87
2022-08-03T07:14:26.268Z,14.84
2022-08-03T07:16:39.243Z,14.82
2022-08-03T07:18:52.266Z,14.80
2022-08-03T07:21:05.301Z,14.79
2022-08-03T07:23:19.395Z,14.79
2022-08-03T07:25:32.470Z,14.78
2022-08-03T07:27:51.777Z,14.78
2022-08-03T07:30:05.338Z,14.77
2022-08-03T07:32:18.725Z,14.78
2022-08-03T07:34:31.973Z,14.79
2022-08-03T07:36:45.180Z,14.81
2022-08-03T07:38:59.344Z,14.81
2022-08-03T07:41:12.300Z,14.82
2022-08-03T07:43:25.530Z,14.82
2022-08-03T07:45:38.695Z,14.84
2022-08-03T07:47:53.284Z,14.87
2022-08-03T07:50:08.613Z,14.87
2022-08-03T07:52:37.995Z,14.89
2022-08-03T07:54:51.107Z,14.91
2022-08-03T07:57:04.087Z,14.92
2022-08-03T07:59:17.093Z,14.93
2022-08-03T08:01:30.286Z,14.93
2022-08-03T08:03:53.277Z,14.93
2022-08-03T08:06:06.880Z,14.93
2022-08-03T08:08:21.325Z,14.94
2022-08-03T08:10:35.366Z,14.95
2022-08-03T08:12:48.385Z,14.97
2022-08-03T08:15:01.370Z,14.99
2022-08-03T08:17:14.593Z,15.01
2022-08-03T08:19:27.527Z,15.04
2022-08-03T08:21:53.478Z,15.06
2022-08-03T08:24:19.768Z,15.08
2022-08-03T08:26:33.466Z,15.08
2022-08-03T08:28:46.484Z,15.09
2022-08-03T08:30:59.508Z,15.12
2022-08-03T08:33:22.418Z,15.14
2022-08-03T08:35:36.837Z,15.15
2022-08-03T08:37:50.900Z,15.16
2022-08-03T08:40:05.428Z,15.19
2022-08-03T08:42:19.001Z,15.20
2022-08-03T08:44:32.513Z,15.22
2022-08-03T08:46:46.329Z,15.25
2022-08-03T08:49:00.327Z,15.29
2022-08-03T08:51:20.088Z,15.30
2022-08-03T08:53:36.417Z,15.31
2022-08-03T08:55:59.445Z,15.32
2022-08-03T08:58:19.787Z,15.33
2022-08-03T09:00:34.321Z,15.33
2022-08-03T09:02:49.022Z,15.34
2022-08-03T09:05:07.160Z,15.35
2022-08-03T09:07:21.001Z,15.35
2022-08-03T09:10:08.364Z,15.36
2022-08-03T09:12:36.490Z,15.35
2022-08-03T09:14:54.853Z,15.38
2022-08-03T09:17:17.371Z,15.39
2022-08-03T09:19:30.764Z,15.41
2022-08-03T09:21:43.792Z,15.44
2022-08-03T09:24:03.297Z,15.47
2022-08-03T09:26:23.183Z,15.50
2022-08-03T09:29:01.152Z,15.50
2022-08-03T09:31:13.578Z,15.49
2022-08-03T09:33:26.590Z,15.50
2022-08-03T09:35:54.833Z,15.51
2022-08-03T09:38:19.322Z,15.52
2022-08-03T09:40:42.920Z,15.53
2022-08-03T09:43:04.016Z,15.54
2022-08-03T09:45:32.182Z,15.52
2022-08-03T09:47:45.354Z,15.51
2022-08-03T09:50:05.543Z,15.50
2022-08-03T09:52:38.215Z,15.49
2022-08-03T09:54:59.164Z,15.50
2022-08-03T09:57:12.682Z,15.49
2022-08-03T09:59:32.700Z,15.47
2022-08-03T10:01:46.745Z,15.45
2022-08-03T10:04:05.291Z,15.44
2022-08-03T10:06:25.477Z,15.44
2022-08-03T10:08:42.209Z,15.44
2022-08-03T10:10:59.087Z,15.45
2022-08-03T10:13:12.223Z,15.45
2022-08-03T10:16:23.348Z,15.46
2022-08-03T10:17:58.588Z,15.49
2022-08-03T10:20:14.045Z,15.52
2022-08-03T10:22:30.897Z,15.53
2022-08-03T10:24:50.756Z,15.56
2022-08-03T10:27:08.351Z,15.57
2022-08-03T10:29:26.099Z,15.59
2022-08-03T10:31:54.740Z,15.60
2022-08-03T10:34:15.145Z,15.61
2022-08-03T10:36:30.808Z,15.62
2022-08-03T10:38:53.966Z,15.61
2022-08-03T10:41:08.625Z,15.61
2022-08-03T10:43:25.927Z,15.61
2022-08-03T10:45:43.074Z,15.60
2022-08-03T10:47:57.023Z,15.60
2022-08-03T10:50:11.781Z,15.62
2022-08-03T10:52:33.779Z,15.62
2022-08-03T10:55:10.176Z,15.65
2022-08-03T10:57:39.489Z,15.69
2022-08-03T11:00:08.703Z,15.69
2022-08-03T11:02:21.926Z,15.70
2022-08-03T11:04:35.619Z,15.70
2022-08-03T11:06:49.554Z,15.69
2022-08-03T11:09:21.413Z,15.70
2022-08-03T11:11:34.438Z,15.70
2022-08-03T11:14:05.923Z,15.72
2022-08-03T11:16:27.230Z,15.70
2022-08-03T11:18:40.307Z,15.71
2022-08-03T11:20:55.626Z,15.72
2022-08-03T11:23:08.770Z,15.73
2022-08-03T11:25:54.076Z,15.74
2022-08-03T11:28:15.258Z,15.75
2022-08-03T11:30:32.055Z,15.73
2022-08-03T11:33:03.849Z,15.73
2022-08-03T11:35:19.343Z,15.66
2022-08-03T11:37:33.420Z,15.58
2022-08-03T11:39:48.113Z,15.53
2022-08-03T11:42:01.264Z,15.49
2022-08-03T11:44:34.210Z,15.46
2022-08-03T11:46:47.312Z,15.37
2022-08-03T11:49:10.241Z,15.32
2022-08-03T11:51:31.169Z,15.26
2022-08-03T11:53:48.912Z,15.19
2022-08-03T11:56:05.833Z,15.09
2022-08-03T11:59:17.313Z,15.02
2022-08-03T12:01:09.937Z,14.99
2022-08-03T12:03:24.182Z,14.96
2022-08-03T12:05:51.603Z,14.93
2022-08-03T12:08:06.938Z,14.87
2022-08-03T12:10:21.121Z,14.82
2022-08-03T12:12:34.031Z,14.82
2022-08-03T12:14:53.187Z,14.82
2022-08-03T12:17:06.462Z,14.82
2022-08-03T12:19:21.618Z,14.82
2022-08-03T12:21:35.018Z,14.79
2022-08-03T12:23:48.338Z,14.76
2022-08-03T12:26:08.589Z,14.74
2022-08-03T12:28:36.376Z,14.72
2022-08-03T12:30:52.603Z,14.70
2022-08-03T12:33:14.558Z,14.70
2022-08-03T12:35:30.581Z,14.70
2022-08-03T12:37:43.580Z,14.71
2022-08-03T12:40:05.339Z,14.73
2022-08-03T12:42:19.709Z,14.75
2022-08-03T12:44:38.774Z,14.76
2022-08-03T12:47:01.254Z,14.77
2022-08-03T12:49:16.576Z,14.77
2022-08-03T12:51:29.939Z,14.80
2022-08-03T12:53:43.276Z,14.82
2022-08-03T12:56:08.309Z,14.82
2022-08-03T12:58:38.455Z,14.82
2022-08-03T13:01:01.110Z,14.82
2022-08-03T13:03:39.386Z,14.83
2022-08-03T13:05:51.323Z,14.84
2022-08-03T13:08:04.293Z,14.84
2022-08-03T13:10:30.836Z,14.86
2022-08-03T13:12:52.980Z,14.86
2022-08-03T13:15:06.534Z,14.86
2022-08-03T13:17:21.386Z,14.87
2022-08-03T13:19:34.829Z,14.90
2022-08-03T13:22:01.385Z,14.93
2022-08-03T13:24:17.620Z,14.98
2022-08-03T13:26:30.630Z,15.02
2022-08-03T13:28:43.753Z,15.03
2022-08-03T13:30:57.301Z,15.07
2022-08-03T13:33:11.940Z,15.09
2022-08-03T13:35:24.922Z,15.11
2022-08-03T13:37:38.449Z,15.12
2022-08-03T13:39:59.617Z,15.15
2022-08-03T13:42:13.814Z,15.18
2022-08-03T13:44:29.165Z,15.19
2022-08-03T13:46:43.115Z,15.19
2022-08-03T13:48:56.091Z,15.19
2022-08-03T13:51:11.654Z,15.18
2022-08-03T13:53:35.289Z,15.19
2022-08-03T13:55:48.284Z,15.20
2022-08-03T13:58:06.131Z,15.22
2022-08-03T14:00:28.098Z,15.22
2022-08-03T14:02:42.646Z,15.21
2022-08-03T14:04:55.874Z,15.22
2022-08-03T14:07:09.122Z,15.21
2022-08-03T14:09:22.113Z,15.21
2022-08-03T14:12:07.336Z,15.21
2022-08-03T14:14:08.499Z,15.25
2022-08-03T14:16:21.627Z,15.28
2022-08-03T14:18:34.697Z,15.31
2022-08-03T14:20:56.352Z,15.28
2022-08-03T14:23:10.477Z,15.28
2022-08-03T14:25:23.895Z,15.29
2022-08-03T14:27:37.018Z,15.31
2022-08-03T14:29:50.177Z,15.33
2022-08-03T14:32:12.202Z,15.35
2022-08-03T14:34:25.968Z,15.37
2022-08-03T14:36:40.584Z,15.38
2022-08-03T14:38:54.684Z,15.36
2022-08-03T14:41:19.703Z,15.37
2022-08-03T14:43:34.397Z,15.39
2022-08-03T14:45:47.398Z,15.41
2022-08-03T14:50:30.563Z,15.43
2022-08-03T14:50:42.086Z,15.45
2022-08-03T14:52:57.685Z,15.50
2022-08-03T14:55:13.019Z,15.56
2022-08-03T14:57:26.243Z,15.61
2022-08-03T14:59:56.235Z,15.64
2022-08-03T15:02:21.219Z,15.67
2022-08-03T15:04:36.632Z,15.66
2022-08-03T15:06:51.319Z,15.69
2022-08-03T15:09:22.544Z,15.72
2022-08-03T15:11:36.388Z,15.73
2022-08-03T15:13:49.553Z,15.75
2022-08-03T15:16:02.647Z,15.78
2022-08-03T15:18:16.253Z,15.81
2022-08-03T15:20:42.685Z,15.84
2022-08-03T15:22:56.856Z,15.85
2022-08-03T15:26:29.083Z,15.85
2022-08-03T15:28:02.744Z,15.85
2022-08-03T15:30:18.321Z,15.84
2022-08-03T15:32:31.383Z,15.86
2022-08-03T15:34:50.804Z,15.87
2022-08-03T15:37:04.043Z,15.90
2022-08-03T15:39:28.282Z,15.93
2022-08-03T15:41:41.477Z,15.97
2022-08-03T15:43:55.636Z,15.99
2022-08-03T15:48:41.757Z,15.97
2022-08-03T15:50:55.787Z,15.97
2022-08-03T15:53:08.874Z,16.02
2022-08-03T15:55:22.022Z,16.05
2022-08-03T15:57:35.209Z,16.09
2022-08-03T16:00:09.583Z,16.12
2022-08-03T16:02:22.852Z,16.14
2022-08-03T16:04:36.004Z,16.18
2022-08-03T16:06:49.158Z,16.23
2022-08-03T16:09:02.494Z,16.26
2022-08-03T16:11:15.628Z,16.31
2022-08-03T16:14:13.375Z,16.36
2022-08-03T16:16:05.038Z,16.41
2022-08-03T16:18:17.960Z,16.47
2022-08-03T16:20:35.112Z,16.49
2022-08-03T16:22:52.384Z,16.51
2022-08-03T16:25:05.589Z,16.50
2022-08-03T16:27:56.547Z,16.49
2022-08-03T16:30:03.237Z,16.51
2022-08-03T16:32:16.205Z,16.54
2022-08-03T16:34:29.356Z,16.56
2022-08-03T16:36:42.560Z,16.57
2022-08-03T16:38:56.068Z,16.59
2022-08-03T16:41:09.384Z,16.63
2022-08-03T16:43:23.301Z,16.68
2022-08-03T16:45:36.551Z,16.70
2022-08-03T16:48:01.694Z,16.71
2022-08-03T16:50:20.091Z,16.74
2022-08-03T16:52:34.047Z,16.74
2022-08-03T16:54:50.559Z,16.76
2022-08-03T16:57:06.309Z,16.82
2022-08-03T16:59:21.733Z,16.88
2022-08-03T17:01:51.383Z,16.94
2022-08-03T17:04:08.547Z,16.98
2022-08-03T17:06:22.075Z,17.07
2022-08-03T17:08:35.635Z,17.17
2022-08-03T17:10:53.901Z,17.24
2022-08-03T17:13:07.026Z,17.30
2022-08-03T17:15:20.300Z,17.35
2022-08-03T17:18:02.185Z,17.42
2022-08-03T17:20:18.288Z,17.48
2022-08-03T17:22:35.280Z,17.53
2022-08-03T17:24:53.827Z,17.50
2022-08-03T17:27:09.419Z,17.43
2022-08-03T17:29:46.501Z,17.40
2022-08-03T17:32:00.449Z,17.37
2022-08-03T17:34:13.531Z,17.36
2022-08-03T17:36:47.702Z,17.39
2022-08-03T17:39:02.909Z,17.43
2022-08-03T17:41:19.753Z,17.50
2022-08-03T17:44:14.509Z,17.53
2022-08-03T17:46:10.961Z,17.54
2022-08-03T17:48:25.426Z,17.52
2022-08-03T17:50:45.545Z,17.48
2022-08-03T17:53:15.639Z,17.51
2022-08-03T17:55:56.042Z,17.57
2022-08-03T17:58:16.963Z,17.66
2022-08-03T18:00:46.878Z,17.74
2022-08-03T18:03:20.771Z,17.83
2022-08-03T18:06:11.789Z,17.81
2022-08-03T18:08:11.721Z,17.86
2022-08-03T18:10:28.068Z,17.84
2022-08-03T18:12:51.828Z,17.81
2022-08-03T18:15:07.796Z,17.85
2022-08-03T18:17:55.496Z,17.86
2022-08-03T18:20:11.643Z,17.82
2022-08-03T18:22:37.737Z,17.83
2022-08-03T18:24:55.855Z,17.87
2022-08-03T18:27:09.234Z,17.94
2022-08-03T18:29:22.680Z,18.02
2022-08-03T18:32:02.434Z,18.13
2022-08-03T18:34:18.526Z,18.23
2022-08-03T18:36:49.461Z,18.33
2022-08-03T18:39:04.176Z,18.41
2022-08-03T18:44:08.542Z,18.55
2022-08-03T18:46:32.734Z,18.58
2022-08-03T18:48:58.568Z,18.56
2022-08-03T18:51:33.954Z,18.61
2022-08-03T18:54:06.338Z,18.70
2022-08-03T18:56:27.034Z,18.74
2022-08-03T18:58:52.546Z,18.81
2022-08-03T19:01:15.447Z,18.88
2022-08-03T19:03:50.933Z,19.04
2022-08-03T19:06:13.355Z,19.12
2022-08-03T19:08:39.222Z,19.20
2022-08-03T19:10:57.797Z,19.31
2022-08-03T19:13:20.817Z,19.45
2022-08-03T19:15:51.547Z,19.67
2022-08-03T19:18:10.491Z,19.93
2022-08-03T19:20:27.149Z,20.08
2022-08-03T19:22:45.723Z,20.18
2022-08-03T19:25:02.595Z,20.21
2022-08-03T19:27:16.539Z,20.10
2022-08-03T19:29:57.840Z,20.05
2022-08-03T19:32:05.365Z,20.13
2022-08-03T19:34:19.509Z,20.11
2022-08-03T19:36:34.153Z,20.18
2022-08-03T19:38:54.483Z,20.22
2022-08-03T19:41:14.909Z,20.20
2022-08-03T19:43:49.349Z,20.22
2022-08-03T19:46:11.242Z,20.31
2022-08-03T19:48:34.397Z,20.39
2022-08-03T19:50:48.096Z,20.43
2022-08-03T19:53:01.880Z,20.47
2022-08-03T19:55:16.287Z,20.50
2022-08-03T19:57:31.940Z,20.59
2022-08-03T19:59:50.030Z,20.69
2022-08-03T20:02:03.607Z,20.75
2022-08-03T20:04:17.344Z,20.85
2022-08-03T20:06:30.492Z,20.85
2022-08-03T20:08:45.947Z,20.96
2022-08-03T20:11:05.496Z,20.85
2022-08-03T20:13:22.091Z,20.73
2022-08-03T20:15:41.609Z,20.75
2022-08-03T20:17:58.584Z,20.76
2022-08-03T20:20:13.269Z,20.77
2022-08-03T20:22:29.346Z,20.70
2022-08-03T20:24:48.128Z,20.61
2022-08-03T20:27:07.943Z,20.55
2022-08-03T20:29:42.693Z,20.44
2022-08-03T20:32:00.235Z,20.32
2022-08-03T20:34:17.573Z,20.30
2022-08-03T20:36:30.995Z,20.26
2022-08-03T20:38:47.230Z,20.24
2022-08-03T20:41:17.645Z,20.26
2022-08-03T20:43:31.297Z,20.35
2022-08-03T20:46:01.009Z,20.49
2022-08-03T20:48:18.091Z,20.64
2022-08-03T20:50:35.443Z,20.72
2022-08-03T20:52:49.746Z,20.86
2022-08-03T20:55:04.052Z,20.92
2022-08-03T20:57:23.858Z,20.86
2022-08-03T20:59:50.730Z,20.74
2022-08-03T21:02:04.905Z,20.71
2022-08-03T21:04:21.123Z,20.71
2022-08-03T21:06:38.855Z,20.83
2022-08-03T21:08:57.450Z,20.86
2022-08-03T21:11:15.753Z,20.98
2022-08-03T21:13:03.971Z,18.50
2022-08-03T21:13:33.508Z,21.04
2022-08-03T21:16:12.012Z,21.21
2022-08-03T21:18:20.846Z,21.44
2022-08-03T21:20:39.438Z,21.55
2022-08-03T21:22:57.354Z,21.60
2022-08-03T21:25:12.797Z,21.64
2022-08-03T21:27:26.607Z,21.67
2022-08-03T21:29:52.897Z,21.66
2022-08-03T21:32:08.782Z,21.50
2022-08-03T21:34:30.676Z,21.55
2022-08-03T21:36:43.680Z,21.59
2022-08-03T21:38:58.733Z,21.58
2022-08-03T21:41:12.056Z,21.56
2022-08-03T21:43:25.181Z,21.57
2022-08-03T21:45:46.405Z,21.55
2022-08-03T21:48:01.726Z,21.63
2022-08-03T21:50:16.789Z,21.82
2022-08-03T21:52:31.312Z,21.94
2022-08-03T21:54:46.872Z,22.05
2022-08-03T21:57:06.546Z,22.14
2022-08-03T21:59:23.287Z,22.18
2022-08-03T22:01:38.239Z,22.21
2022-08-03T22:03:53.896Z,22.25
2022-08-03T22:06:07.483Z,22.23
2022-08-03T22:08:32.770Z,22.22
2022-08-03T22:10:46.574Z,22.23
2022-08-03T22:12:59.526Z,22.33
2022-08-03T22:15:16.254Z,22.36
2022-08-03T22:17:54.115Z,22.30
2022-08-03T22:20:02.268Z,22.20
2022-08-03T22:22:16.535Z,22.12
2022-08-03T22:24:33.156Z,22.11
2022-08-03T22:27:06.768Z,22.05
2022-08-03T22:29:19.862Z,21.87
2022-08-03T22:31:58.615Z,21.69
2022-08-03T22:34:06.397Z,21.53
2022-08-03T22:36:21.370Z,21.34
2022-08-03T22:38:35.891Z,21.21
2022-08-03T22:40:51.211Z,21.08
2022-08-03T22:43:04.941Z,20.94
2022-08-03T22:46:07.892Z,20.82
2022-08-03T22:47:53.169Z,20.67
2022-08-03T22:50:32.024Z,20.54
2022-08-03T22:52:44.832Z,20.39
2022-08-03T22:54:58.453Z,20.33
2022-08-03T22:57:11.952Z,20.28
2022-08-03T22:59:41.295Z,20.25
2022-08-03T23:01:59.680Z,20.23
2022-08-03T23:04:13.693Z,20.20
2022-08-03T23:06:29.880Z,20.21
2022-08-03T23:08:45.871Z,20.20
2022-08-03T23:11:05.503Z,20.24
2022-08-03T23:13:19.879Z,20.29
2022-08-03T23:15:36.228Z,20.35
2022-08-03T23:17:58.166Z,20.40
2022-08-03T23:20:10.736Z,20.42
2022-08-03T23:22:30.542Z,20.39
2022-08-03T23:24:45.353Z,20.36
2022-08-03T23:26:59.014Z,20.35
2022-08-03T23:29:12.186Z,20.36
2022-08-03T23:31:29.015Z,20.33
2022-08-03T23:33:44.331Z,20.13
2022-08-03T23:36:28.014Z,20.00
2022-08-03T23:38:38.572Z,19.87
2022-08-03T23:40:51.634Z,19.73
2022-08-03T23:43:06.162Z,19.61
2022-08-03T23:45:20.980Z,19.56
2022-08-03T23:47:46.967Z,19.60
2022-08-03T23:50:00.891Z,19.64
2022-08-03T23:52:19.290Z,19.65
2022-08-03T23:54:51.378Z,19.64
2022-08-03T23:57:12.114Z,19.65
2022-08-03T23:59:33.695Z,19.63
